KEWN/EWN METAR and TAF weather

Enter ICAO airport designator
Station Type Date Time Source
KEWN METAR 2022/12/05 14:54 UTC NOAA

KEWN 051454Z 02005KT 10SM CLR 09/05 A3025 RMK AO2 SLP242 T00890050 51010


Station Type Date Time Source
KEWN Decoded METAR 2022/12/05 14:54 UTC NOAA

New Bern, Craven County Regional Airport, NC, United States (KEWN) 35-04-03N 077-02-50W 3M
Dec 05, 2022 - 09:54 AM EST / 2022.12.05 1454 UTC
Wind: from the NNE (020 degrees) at 6 MPH (5 KT):0
Visibility: 10 mile(s):0
Sky conditions: clear
Temperature: 48.0 F (8.9 C)
Dew Point: 41.0 F (5.0 C)
Relative Humidity: 76%
Pressure (altimeter): 30.25 in. Hg (1024 hPa)
Pressure tendency: 0.03 inches (1.0 hPa) higher than three hours ago
ob: KEWN 051454Z 02005KT 10SM CLR 09/05 A3025 RMK AO2 SLP242 T00890050 51010
cycle: 15

Station Type Date Time Source
KEWN TAF 2022/12/05 12:22 UTC NOAA

TAF KEWN 051120Z 0512/0612 03004KT P6SM SCT100
FM051800 08006KT P6SM SCT090
FM060600 02004KT P6SM BKN050

Example: see airport list